Time;durP1;ratioP1;P1;durP2;ratioP2;P2;SDS_P1;SDS_P2;PMS_P1;PMS_P2;Temp;Humidity;BMP_temperature;BMP_pressure;BME280_temperature;BME280_humidity;BME280_pressure;Samples;Min_cycle;Max_cycle;Signal;HPM_P1;HPM_P2
2022/03/03 00:00:08;;;;;;;;;;;;;;;17.46;41.96;100833.72;4410182;32;19962;-70
2022/03/03 00:02:33;;;;;;;;;;;;;;;17.52;41.84;100836.72;4413009;32;19956;-70
2022/03/03 00:04:59;;;;;;;;;;;;;;;17.44;42.29;100836.28;4409330;32;19977;-70
2022/03/03 00:07:25;;;;;;;;;;;;;;;17.53;42.23;100827.69;4412281;32;19983;-70
2022/03/03 00:09:51;;;;;;;;;;;;;;;17.57;41.98;100821.81;4408614;32;19962;-70
2022/03/03 00:12:19;;;;;;;;;;;;;;;17.38;41.85;100823.16;4410522;32;20383;-70
2022/03/03 00:14:45;;;;;;;;;;;;;;;17.49;41.46;100823.47;4410200;32;19972;-70
2022/03/03 00:17:12;;;;;;;;;;;;;;;17.39;41.86;100819.03;4415231;32;20007;-70
2022/03/03 00:19:38;;;;;;;;;;;;;;;17.50;41.82;100813.63;4410241;32;19958;-70
2022/03/03 00:22:03;;;;;;;;;;;;;;;17.22;41.82;100815.06;4396919;32;20017;-70
2022/03/03 00:24:29;;;;;;;;;;;;;;;17.40;41.58;100820.63;4410072;32;20236;-70
2022/03/03 00:26:54;;;;;;;;;;;;;;;17.22;41.82;100807.31;4415056;32;20398;-70
2022/03/03 00:29:20;;;;;;;;;;;;;;;17.42;41.70;100801.81;4408187;32;20115;-70
2022/03/03 00:31:46;;;;;;;;;;;;;;;17.46;41.67;100799.59;4412159;32;20001;-70
2022/03/03 00:34:11;;;;;;;;;;;;;;;17.37;41.37;100804.53;4410146;32;19967;-70
2022/03/03 00:36:37;;;;;;;;;;;;;;;17.45;41.33;100789.47;4412871;32;19954;-70
2022/03/03 00:39:03;;;;;;;;;;;;;;;17.52;41.03;100785.50;4410806;32;20015;-70
2022/03/03 00:41:29;;;;;;;;;;;;;;;17.61;41.40;100789.03;4411578;32;20000;-70
2022/03/03 00:43:55;;;;;;;;;;;;;;;17.71;41.34;100786.94;4416400;32;20023;-70
2022/03/03 00:46:21;;;;;;;;;;;;;;;17.33;41.22;100787.62;4412125;32;19949;-70
2022/03/03 00:48:46;;;;;;;;;;;;;;;17.25;41.39;100777.88;4415015;32;20015;-70
2022/03/03 00:51:12;;;;;;;;;;;;;;;17.25;40.85;100791.34;4416479;32;20008;-70
2022/03/03 00:53:38;;;;;;;;;;;;;;;17.48;41.41;100788.53;4414262;32;19997;-70
2022/03/03 00:56:04;;;;;;;;;;;;;;;17.51;41.18;100783.91;4416199;32;19953;-70
2022/03/03 00:58:30;;;;;;;;;;;;;;;17.52;41.00;100780.56;4414131;32;20431;-70
2022/03/03 01:00:56;;;;;;;;;;;;;;;17.59;40.98;100785.13;4413842;32;19950;-70
2022/03/03 01:03:22;;;;;;;;;;;;;;;17.72;40.85;100782.81;4413071;32;19953;-70
2022/03/03 01:05:47;;;;;;;;;;;;;;;17.58;40.86;100781.47;4403777;32;20340;-70
2022/03/03 01:08:13;;;;;;;;;;;;;;;17.51;40.82;100784.69;4412709;32;20041;-70
2022/03/03 01:10:39;;;;;;;;;;;;;;;17.53;40.75;100779.31;4413726;32;20008;-70
2022/03/03 01:13:04;;;;;;;;;;;;;;;17.68;40.45;100762.28;4415791;32;20308;-70
2022/03/03 01:15:30;;;;;;;;;;;;;;;17.74;40.40;100766.03;4412166;32;19949;-70
2022/03/03 01:17:55;;;;;;;;;;;;;;;17.70;40.68;100765.41;4412538;32;20602;-70
2022/03/03 01:20:21;;;;;;;;;;;;;;;17.64;40.59;100761.66;4413072;32;20419;-70
2022/03/03 01:22:46;;;;;;;;;;;;;;;17.73;40.08;100755.91;4416684;32;19957;-70
2022/03/03 01:25:12;;;;;;;;;;;;;;;17.73;40.39;100750.22;4413127;32;19981;-70
2022/03/03 01:27:38;;;;;;;;;;;;;;;17.72;40.50;100743.75;4410951;32;19982;-70
2022/03/03 01:30:04;;;;;;;;;;;;;;;17.64;40.32;100736.84;4413208;32;19957;-70
2022/03/03 01:32:29;;;;;;;;;;;;;;;17.67;40.39;100743.62;4413361;32;20021;-70
2022/03/03 01:34:55;;;;;;;;;;;;;;;17.17;40.71;100736.88;4413286;32;19996;-70
2022/03/03 01:37:20;;;;;;;;;;;;;;;17.38;40.53;100729.28;4415644;32;19953;-70
2022/03/03 01:39:46;;;;;;;;;;;;;;;17.52;40.38;100723.66;4414509;32;20369;-70
2022/03/03 01:42:12;;;;;;;;;;;;;;;17.45;40.57;100721.22;4412165;32;19973;-70
2022/03/03 01:44:41;;;;;;;;;;;;;;;17.24;40.66;100715.78;4412621;32;19965;-70
2022/03/03 01:47:14;;;;;;;;;;;;;;;17.28;40.63;100713.56;4418729;32;19956;-70
2022/03/03 01:49:40;;;;;;;;;;;;;;;17.30;40.60;100719.53;4413614;32;20369;-70
2022/03/03 01:52:06;;;;;;;;;;;;;;;17.26;40.08;100708.37;4412554;32;20036;-70
2022/03/03 01:54:31;;;;;;;;;;;;;;;17.33;40.31;100710.03;4416270;32;20076;-70
2022/03/03 01:56:57;;;;;;;;;;;;;;;17.41;40.26;100702.72;4413358;32;20391;-70
2022/03/03 01:59:23;;;;;;;;;;;;;;;17.30;40.42;100686.22;4410493;32;20018;-70
2022/03/03 02:01:51;;;;;;;;;;;;;;;17.36;40.54;100692.00;4410345;32;19997;-70
2022/03/03 02:04:16;;;;;;;;;;;;;;;17.47;39.86;100678.84;4412489;32;20422;-70
2022/03/03 02:06:42;;;;;;;;;;;;;;;17.51;40.01;100690.00;4412205;32;20414;-70
2022/03/03 02:09:08;;;;;;;;;;;;;;;17.55;39.63;100684.94;4413837;32;20005;-70
2022/03/03 02:11:33;;;;;;;;;;;;;;;17.50;40.17;100692.09;4411005;32;20453;-69
2022/03/03 02:14:02;;;;;;;;;;;;;;;17.51;40.13;100687.16;4411667;32;20424;-70
2022/03/03 02:16:27;;;;;;;;;;;;;;;17.42;39.54;100682.31;4414251;32;20965;-70
2022/03/03 02:18:53;;;;;;;;;;;;;;;17.38;40.11;100680.94;4410931;32;20021;-70
2022/03/03 02:21:18;;;;;;;;;;;;;;;17.41;39.42;100672.22;4410142;32;20002;-70
2022/03/03 02:23:44;;;;;;;;;;;;;;;17.53;40.04;100676.09;4412487;32;19993;-70
2022/03/03 02:26:12;;;;;;;;;;;;;;;17.39;40.10;100680.44;4400840;32;19998;-70
2022/03/03 02:28:38;;;;;;;;;;;;;;;17.60;39.94;100672.84;4410633;32;19953;-70
2022/03/03 02:31:03;;;;;;;;;;;;;;;17.60;39.70;100665.13;4410602;32;20013;-70
2022/03/03 02:33:29;;;;;;;;;;;;;;;17.68;39.88;100663.44;4416538;32;20572;-69
2022/03/03 02:35:54;;;;;;;;;;;;;;;17.53;40.09;100656.97;4410648;32;20005;-69
2022/03/03 02:38:20;;;;;;;;;;;;;;;17.58;39.78;100656.28;4412259;32;20347;-69
2022/03/03 02:40:46;;;;;;;;;;;;;;;17.72;39.61;100646.19;4408064;32;20019;-70
2022/03/03 02:43:11;;;;;;;;;;;;;;;17.80;39.36;100650.22;4413610;32;20374;-70
2022/03/03 02:45:37;;;;;;;;;;;;;;;17.77;39.51;100642.66;4412778;32;19958;-70
2022/03/03 02:48:02;;;;;;;;;;;;;;;17.74;39.49;100644.41;4413556;32;20625;-70
2022/03/03 02:50:28;;;;;;;;;;;;;;;17.79;39.70;100646.56;4411075;32;19978;-70
2022/03/03 02:52:57;;;;;;;;;;;;;;;17.51;39.94;100638.78;4411061;32;20013;-70
2022/03/03 02:55:22;;;;;;;;;;;;;;;17.46;39.64;100633.81;4411930;32;19949;-69
2022/03/03 02:57:55;;;;;;;;;;;;;;;17.52;39.95;100635.47;4412151;32;20039;-69
2022/03/03 03:00:26;;;;;;;;;;;;;;;17.45;40.18;100637.91;4410866;32;20008;-69
2022/03/03 03:02:51;;;;;;;;;;;;;;;17.48;40.57;100634.06;4411718;32;20304;-70
2022/03/03 03:05:17;;;;;;;;;;;;;;;17.50;40.54;100625.84;4410023;32;19968;-70
2022/03/03 03:07:43;;;;;;;;;;;;;;;17.53;40.66;100631.38;4411160;32;20013;-70
2022/03/03 03:10:08;;;;;;;;;;;;;;;17.42;40.53;100633.94;4408435;32;20048;-70
2022/03/03 03:12:34;;;;;;;;;;;;;;;17.27;40.96;100633.13;4408802;32;19968;-70
2022/03/03 03:15:00;;;;;;;;;;;;;;;17.28;40.31;100639.63;4411516;32;19954;-70
2022/03/03 03:17:25;;;;;;;;;;;;;;;17.25;40.85;100629.22;4410198;32;20006;-70
2022/03/03 03:19:51;;;;;;;;;;;;;;;17.28;41.09;100633.94;4409421;32;20297;-70
2022/03/03 03:22:16;;;;;;;;;;;;;;;17.19;40.55;100625.47;4409954;32;20053;-70
2022/03/03 03:24:42;;;;;;;;;;;;;;;17.20;41.34;100633.53;4410582;32;21246;-70
2022/03/03 03:27:08;;;;;;;;;;;;;;;17.00;42.36;100618.38;4410024;32;19990;-70
2022/03/03 03:29:34;;;;;;;;;;;;;;;17.14;42.18;100624.09;4409566;32;19957;-70
2022/03/03 03:31:59;;;;;;;;;;;;;;;17.09;42.06;100621.91;4411208;32;20369;-70
2022/03/03 03:34:25;;;;;;;;;;;;;;;17.09;42.22;100613.37;4411432;32;20299;-70
2022/03/03 03:36:50;;;;;;;;;;;;;;;17.10;42.61;100614.19;4410137;32;19962;-70
2022/03/03 03:39:16;;;;;;;;;;;;;;;17.21;42.49;100612.31;4409235;32;20099;-70
2022/03/03 03:41:43;;;;;;;;;;;;;;;17.28;41.78;100623.31;4407298;32;21044;-70
2022/03/03 03:44:09;;;;;;;;;;;;;;;17.24;41.99;100613.41;4410014;32;19969;-70
2022/03/03 03:46:35;;;;;;;;;;;;;;;17.21;42.30;100620.88;4411404;32;20008;-70
2022/03/03 03:49:02;;;;;;;;;;;;;;;17.26;41.92;100617.34;4410332;32;19972;-70
2022/03/03 03:51:27;;;;;;;;;;;;;;;17.22;42.33;100622.44;4410546;32;20232;-70
2022/03/03 03:53:53;;;;;;;;;;;;;;;17.18;41.60;100623.91;4410902;32;20005;-70
2022/03/03 03:56:18;;;;;;;;;;;;;;;17.29;41.66;100609.91;4408808;32;19958;-70
2022/03/03 03:58:45;;;;;;;;;;;;;;;17.37;41.37;100617.56;4409346;32;20057;-70
2022/03/03 04:01:10;;;;;;;;;;;;;;;17.26;41.10;100608.03;4406805;32;19992;-70
2022/03/03 04:03:36;;;;;;;;;;;;;;;17.23;41.50;100614.69;4409148;32;19958;-70
2022/03/03 04:06:02;;;;;;;;;;;;;;;17.21;41.67;100618.03;4411265;32;19981;-70
2022/03/03 04:08:27;;;;;;;;;;;;;;;17.08;41.49;100620.34;4408216;32;21223;-70
2022/03/03 04:10:53;;;;;;;;;;;;;;;17.12;40.64;100618.09;4408635;32;20394;-70
2022/03/03 04:13:21;;;;;;;;;;;;;;;17.25;41.15;100601.53;4408841;32;20394;-71
2022/03/03 04:15:47;;;;;;;;;;;;;;;17.24;41.73;100605.66;4412774;32;20128;-70
2022/03/03 04:18:13;;;;;;;;;;;;;;;17.42;41.51;100608.34;4410221;32;20439;-70
2022/03/03 04:20:39;;;;;;;;;;;;;;;17.55;41.21;100593.88;4408064;32;19969;-70
2022/03/03 04:23:05;;;;;;;;;;;;;;;17.53;40.90;100602.91;4411239;32;19968;-70
2022/03/03 04:25:31;;;;;;;;;;;;;;;17.58;41.48;100592.91;4411723;32;20034;-70
2022/03/03 04:27:57;;;;;;;;;;;;;;;17.62;41.17;100584.94;4398414;32;19972;-70
2022/03/03 04:30:22;;;;;;;;;;;;;;;17.74;40.50;100584.62;4409304;32;20012;-70
2022/03/03 04:32:48;;;;;;;;;;;;;;;17.80;40.51;100579.06;4410225;32;19988;-70
2022/03/03 04:35:14;;;;;;;;;;;;;;;17.66;40.87;100579.84;4411105;32;20001;-70
2022/03/03 04:37:40;;;;;;;;;;;;;;;17.78;40.88;100576.69;4410887;32;19949;-70
2022/03/03 04:40:06;;;;;;;;;;;;;;;17.70;40.54;100574.72;4411567;32;20836;-70
2022/03/03 04:42:31;;;;;;;;;;;;;;;17.61;40.72;100574.81;4408597;32;20481;-70
2022/03/03 04:44:57;;;;;;;;;;;;;;;17.65;40.97;100564.03;4410520;32;19954;-70
2022/03/03 04:47:23;;;;;;;;;;;;;;;17.61;41.15;100566.28;4409539;32;20019;-70
2022/03/03 04:49:48;;;;;;;;;;;;;;;17.64;41.20;100573.84;4410762;32;19958;-70
2022/03/03 04:52:14;;;;;;;;;;;;;;;17.56;40.96;100570.62;4410189;32;19957;-70
2022/03/03 04:54:40;;;;;;;;;;;;;;;17.68;40.62;100575.22;4410901;32;19957;-70
2022/03/03 04:57:05;;;;;;;;;;;;;;;17.88;39.96;100586.69;4412743;32;20297;-70
2022/03/03 04:59:31;;;;;;;;;;;;;;;17.86;40.06;100583.53;4413151;32;19989;-70
2022/03/03 05:01:57;;;;;;;;;;;;;;;17.85;39.94;100589.72;4407313;32;19965;-70
2022/03/03 05:04:22;;;;;;;;;;;;;;;17.87;39.87;100585.13;4409108;32;19965;-71
2022/03/03 05:06:49;;;;;;;;;;;;;;;17.60;40.41;100587.50;4410622;32;19963;-71
2022/03/03 05:09:15;;;;;;;;;;;;;;;17.76;40.33;100581.28;4410245;32;20011;-71
2022/03/03 05:11:41;;;;;;;;;;;;;;;17.72;40.45;100578.66;4409198;32;20348;-71
2022/03/03 05:14:06;;;;;;;;;;;;;;;17.64;40.37;100571.00;4410356;32;20011;-71
2022/03/03 05:16:32;;;;;;;;;;;;;;;17.72;40.23;100572.97;4411489;32;19968;-71
2022/03/03 05:18:57;;;;;;;;;;;;;;;17.81;40.12;100578.56;4410754;32;20294;-71
2022/03/03 05:21:23;;;;;;;;;;;;;;;17.80;40.42;100582.66;4409134;32;20124;-71
2022/03/03 05:23:48;;;;;;;;;;;;;;;17.72;40.35;100572.97;4410798;32;19954;-71
2022/03/03 05:26:14;;;;;;;;;;;;;;;17.62;40.69;100565.78;4408106;32;19949;-71
2022/03/03 05:28:39;;;;;;;;;;;;;;;17.77;40.64;100566.56;4411719;32;19979;-71
2022/03/03 05:31:05;;;;;;;;;;;;;;;17.79;40.45;100561.19;4411750;32;19985;-71
2022/03/03 05:33:32;;;;;;;;;;;;;;;17.83;40.68;100564.59;4412710;32;20925;-71
2022/03/03 05:35:59;;;;;;;;;;;;;;;17.83;40.51;100563.84;4413858;32;19960;-71
2022/03/03 05:38:27;;;;;;;;;;;;;;;17.95;40.60;100568.44;4416169;32;19969;-71
2022/03/03 05:40:53;;;;;;;;;;;;;;;17.87;40.37;100567.25;4409413;32;20002;-71
2022/03/03 05:43:19;;;;;;;;;;;;;;;17.94;39.58;100571.78;4411467;32;19966;-70
2022/03/03 05:45:46;;;;;;;;;;;;;;;17.81;39.62;100570.03;4411266;32;20191;-71
2022/03/03 05:48:15;;;;;;;;;;;;;;;17.95;39.83;100567.62;4412836;32;20013;-71
2022/03/03 05:50:41;;;;;;;;;;;;;;;17.99;39.61;100573.91;4397564;32;20344;-70
2022/03/03 05:53:06;;;;;;;;;;;;;;;17.91;39.65;100567.06;4413281;32;19977;-71
2022/03/03 05:55:35;;;;;;;;;;;;;;;17.95;40.01;100571.28;4411637;32;20375;-70
2022/03/03 05:58:01;;;;;;;;;;;;;;;17.95;39.71;100565.59;4413033;32;20647;-70
2022/03/03 06:00:29;;;;;;;;;;;;;;;17.91;39.95;100564.22;4411506;32;20413;-70
2022/03/03 06:02:54;;;;;;;;;;;;;;;17.85;40.18;100576.28;4413508;32;20021;-71
2022/03/03 06:05:23;;;;;;;;;;;;;;;17.71;40.16;100562.06;4398996;32;19992;-70
2022/03/03 06:07:51;;;;;;;;;;;;;;;17.79;40.15;100564.03;4400265;32;20039;-70
2022/03/03 06:10:20;;;;;;;;;;;;;;;17.80;40.44;100571.28;4410737;32;19961;-70
2022/03/03 06:12:47;;;;;;;;;;;;;;;17.84;40.10;100571.09;4410423;32;20090;-70
2022/03/03 06:15:13;;;;;;;;;;;;;;;17.86;40.22;100560.78;4410576;32;20003;-69
2022/03/03 06:17:40;;;;;;;;;;;;;;;17.69;40.06;100562.56;4412616;32;20389;-70
2022/03/03 06:20:05;;;;;;;;;;;;;;;17.65;40.06;100570.50;4414025;32;20001;-70
2022/03/03 06:22:31;;;;;;;;;;;;;;;17.80;40.43;100568.44;4412876;32;19960;-70
2022/03/03 06:24:58;;;;;;;;;;;;;;;17.84;40.06;100573.94;4413719;32;19997;-70
2022/03/03 06:27:23;;;;;;;;;;;;;;;17.79;40.08;100572.56;4413688;32;19993;-70
2022/03/03 06:29:49;;;;;;;;;;;;;;;17.91;40.00;100576.37;4411745;32;20000;-71
2022/03/03 06:32:15;;;;;;;;;;;;;;;17.72;40.03;100577.88;4398034;32;20258;-70
2022/03/03 06:34:40;;;;;;;;;;;;;;;17.82;40.06;100577.28;4413021;32;20016;-70
2022/03/03 06:37:06;;;;;;;;;;;;;;;17.79;40.55;100575.41;4416595;32;20484;-70
2022/03/03 06:39:32;;;;;;;;;;;;;;;17.88;40.51;100581.00;4412181;32;19962;-70
2022/03/03 06:41:58;;;;;;;;;;;;;;;17.88;40.67;100571.66;4411309;32;19966;-70
2022/03/03 06:44:24;;;;;;;;;;;;;;;17.80;40.34;100576.97;4413300;32;19996;-70
2022/03/03 06:46:49;;;;;;;;;;;;;;;17.92;40.54;100578.72;4398715;32;20525;-70
2022/03/03 06:49:16;;;;;;;;;;;;;;;17.92;39.98;100575.13;4409294;32;20003;-70
2022/03/03 06:51:42;;;;;;;;;;;;;;;17.94;39.74;100577.47;4409304;32;20339;-70
2022/03/03 06:54:12;;;;;;;;;;;;;;;17.86;40.17;100579.94;4409423;32;19976;-70
2022/03/03 06:56:44;;;;;;;;;;;;;;;17.77;40.24;100574.34;4411829;32;19973;-70
2022/03/03 06:59:10;;;;;;;;;;;;;;;17.84;40.21;100583.28;4409479;32;19970;-70
2022/03/03 07:01:36;;;;;;;;;;;;;;;17.85;40.15;100587.69;4412973;32;20420;-70
2022/03/03 07:04:02;;;;;;;;;;;;;;;17.92;39.79;100577.97;4411810;32;19960;-70
2022/03/03 07:06:28;;;;;;;;;;;;;;;18.03;39.83;100583.03;4412964;32;19946;-70
2022/03/03 07:08:55;;;;;;;;;;;;;;;18.10;39.65;100582.63;4412947;32;20056;-70
2022/03/03 07:11:21;;;;;;;;;;;;;;;18.21;39.82;100579.94;4409926;32;19984;-70
2022/03/03 07:13:47;;;;;;;;;;;;;;;18.10;40.06;100583.41;4411126;32;19997;-70
2022/03/03 07:18:50;;;;;;;;;;;;;;;18.51;39.03;100570.84;3949498;32;15830582;-71
2022/03/03 07:24:02;;;;;;;;;;;;;;;18.20;39.28;100569.84;3950451;32;15724486;-71
2022/03/03 07:26:28;;;;;;;;;;;;;;;18.07;39.63;100575.84;4428282;32;20444;-71
2022/03/03 07:28:54;;;;;;;;;;;;;;;18.01;39.80;100577.06;4430460;32;19997;-71
2022/03/03 07:31:23;;;;;;;;;;;;;;;17.95;39.65;100565.59;4428975;32;20059;-71
2022/03/03 07:33:58;;;;;;;;;;;;;;;18.00;39.81;100569.78;4422858;32;20631;-71
2022/03/03 07:36:26;;;;;;;;;;;;;;;18.10;39.77;100571.25;4423717;32;19989;-71
2022/03/03 07:38:57;;;;;;;;;;;;;;;18.30;39.62;100574.12;4425164;32;20018;-71
2022/03/03 07:41:25;;;;;;;;;;;;;;;18.22;40.05;100581.53;4424440;32;21381;-71
2022/03/03 07:43:53;;;;;;;;;;;;;;;18.08;39.80;100579.50;4424700;32;20000;-71
2022/03/03 07:46:18;;;;;;;;;;;;;;;18.27;39.33;100572.28;4421727;32;20020;-71
2022/03/03 07:48:44;;;;;;;;;;;;;;;18.28;39.99;100568.16;4420573;32;20299;-71
2022/03/03 07:51:10;;;;;;;;;;;;;;;18.32;39.92;100571.56;4422795;32;19993;-71
2022/03/03 07:53:37;;;;;;;;;;;;;;;18.25;39.33;100577.69;4430590;32;20719;-71
2022/03/03 07:56:03;;;;;;;;;;;;;;;18.30;39.56;100566.37;4421769;32;20011;-71
2022/03/03 07:58:31;;;;;;;;;;;;;;;18.34;39.92;100572.66;4424541;32;20005;-71
2022/03/03 08:00:58;;;;;;;;;;;;;;;18.41;39.53;100577.94;4421654;32;19953;-71
2022/03/03 08:03:25;;;;;;;;;;;;;;;18.49;38.82;100570.56;4425610;32;20016;-71
2022/03/03 08:05:52;;;;;;;;;;;;;;;18.66;38.11;100565.09;4416267;32;19981;-71
2022/03/03 08:08:20;;;;;;;;;;;;;;;18.69;38.78;100564.09;4404485;32;20622;-71
2022/03/03 08:10:46;;;;;;;;;;;;;;;18.73;38.64;100576.06;4420096;32;20436;-71
2022/03/03 08:13:13;;;;;;;;;;;;;;;18.71;38.27;100572.91;4421453;32;19961;-71
2022/03/03 08:15:40;;;;;;;;;;;;;;;18.68;38.48;100574.69;4421194;32;20771;-71
2022/03/03 08:18:07;;;;;;;;;;;;;;;18.55;38.32;100576.31;4414113;32;20361;-73
2022/03/03 08:20:34;;;;;;;;;;;;;;;18.62;38.58;100576.69;4417023;32;19997;-72
2022/03/03 08:23:00;;;;;;;;;;;;;;;18.71;38.76;100572.91;4418367;32;19953;-72
2022/03/03 08:25:26;;;;;;;;;;;;;;;18.58;38.56;100564.72;4417978;32;19990;-72
2022/03/03 08:27:53;;;;;;;;;;;;;;;18.62;39.31;100571.00;4405507;32;20003;-72
2022/03/03 08:30:19;;;;;;;;;;;;;;;18.75;39.36;100582.06;4418902;32;19959;-72
2022/03/03 08:32:48;;;;;;;;;;;;;;;18.86;39.04;100573.63;4419294;32;20354;-72
2022/03/03 08:35:16;;;;;;;;;;;;;;;18.95;38.39;100582.84;4411395;32;20348;-72
2022/03/03 08:37:44;;;;;;;;;;;;;;;19.19;37.95;100585.44;4408032;32;19981;-72
2022/03/03 08:40:12;;;;;;;;;;;;;;;19.33;37.78;100581.75;4411733;32;19983;-72
2022/03/03 08:42:39;;;;;;;;;;;;;;;19.05;38.33;100586.34;4410921;32;19990;-73
2022/03/03 08:45:06;;;;;;;;;;;;;;;19.19;38.75;100585.44;4409102;32;20058;-72
2022/03/03 08:47:32;;;;;;;;;;;;;;;19.45;37.60;100581.34;4411266;32;20119;-72
2022/03/03 08:49:59;;;;;;;;;;;;;;;19.45;37.56;100586.25;4405927;32;20623;-72
2022/03/03 08:52:26;;;;;;;;;;;;;;;19.38;37.26;100587.50;4409660;32;20433;-71
2022/03/03 08:54:52;;;;;;;;;;;;;;;19.50;36.52;100589.19;4409297;32;20266;-72
2022/03/03 08:57:21;;;;;;;;;;;;;;;19.29;37.12;100581.97;4408024;32;20368;-71
2022/03/03 08:59:46;;;;;;;;;;;;;;;19.41;37.56;100588.56;4407660;32;20057;-71
2022/03/03 09:02:16;;;;;;;;;;;;;;;19.42;37.50;100587.28;4410841;32;19953;-71
2022/03/03 09:04:43;;;;;;;;;;;;;;;19.56;36.89;100590.03;4411169;32;19962;-73
2022/03/03 09:07:09;;;;;;;;;;;;;;;19.78;36.56;100604.50;4412142;32;19968;-72
2022/03/03 09:09:34;;;;;;;;;;;;;;;19.77;36.60;100605.00;4405851;32;19965;-71
2022/03/03 09:12:01;;;;;;;;;;;;;;;19.77;36.48;100605.00;4411824;32;20029;-74
2022/03/03 09:14:27;;;;;;;;;;;;;;;19.61;36.83;100611.34;4411205;32;20025;-72
2022/03/03 09:16:53;;;;;;;;;;;;;;;19.57;36.83;100620.13;4410522;32;19957;-72
2022/03/03 09:19:20;;;;;;;;;;;;;;;19.56;37.01;100606.37;4407253;32;20432;-72
2022/03/03 09:21:45;;;;;;;;;;;;;;;19.68;37.29;100605.19;4409918;32;19988;-74
2022/03/03 09:24:11;;;;;;;;;;;;;;;19.52;37.17;100603.72;4412950;32;20305;-73
2022/03/03 09:26:37;;;;;;;;;;;;;;;19.64;37.58;100613.19;4411508;32;20004;-72
2022/03/03 09:29:02;;;;;;;;;;;;;;;19.50;38.26;100608.38;4409322;32;20316;-72
2022/03/03 09:31:28;;;;;;;;;;;;;;;19.49;38.01;100603.97;4409328;32;19997;-72
2022/03/03 09:33:54;;;;;;;;;;;;;;;19.34;38.21;100609.00;4409973;32;20303;-72
2022/03/03 09:36:19;;;;;;;;;;;;;;;19.50;38.27;100614.09;4413387;32;20009;-72
2022/03/03 09:38:45;;;;;;;;;;;;;;;19.47;38.48;100607.31;4411711;32;20052;-72
2022/03/03 09:41:11;;;;;;;;;;;;;;;19.60;38.63;100602.00;4408051;32;20072;-72
2022/03/03 09:43:38;;;;;;;;;;;;;;;19.60;38.68;100607.72;4410056;32;20119;-72
2022/03/03 09:46:04;;;;;;;;;;;;;;;19.34;38.71;100603.28;4406872;32;19968;-72
2022/03/03 09:48:30;;;;;;;;;;;;;;;19.34;38.71;100609.00;4408129;32;19999;-72
2022/03/03 09:50:55;;;;;;;;;;;;;;;19.15;39.04;100602.75;4406213;32;20012;-71
2022/03/03 09:53:21;;;;;;;;;;;;;;;19.21;38.45;100597.91;4410047;32;20330;-73
2022/03/03 09:55:47;;;;;;;;;;;;;;;19.37;38.38;100602.28;4410321;32;20424;-73
2022/03/03 09:58:13;;;;;;;;;;;;;;;19.21;39.31;100600.75;4397253;32;19954;-75
2022/03/03 10:00:40;;;;;;;;;;;;;;;19.05;39.44;100600.59;4405538;32;20054;-73
2022/03/03 10:03:09;;;;;;;;;;;;;;;19.18;39.04;100607.47;4410700;32;20647;-72
2022/03/03 10:05:36;;;;;;;;;;;;;;;19.13;39.26;100602.50;4411372;32;21520;-73
2022/03/03 10:08:10;;;;;;;;;;;;;;;19.21;39.21;100605.69;4412879;32;20418;-73
2022/03/03 10:10:38;;;;;;;;;;;;;;;19.28;38.24;100605.28;4406624;32;19972;-72
2022/03/03 10:13:04;;;;;;;;;;;;;;;19.09;39.14;100604.75;4406539;32;20017;-73
2022/03/03 10:15:30;;;;;;;;;;;;;;;19.14;39.04;100608.97;4408787;32;20037;-72
2022/03/03 10:17:58;;;;;;;;;;;;;;;19.21;38.18;100606.47;4402819;32;19966;-73
2022/03/03 10:20:25;;;;;;;;;;;;;;;19.10;38.29;100617.75;4405251;32;20361;-72
2022/03/03 10:22:57;;;;;;;;;;;;;;;19.09;38.21;100615.41;4408436;32;19957;-72
2022/03/03 10:25:27;;;;;;;;;;;;;;;19.22;37.64;100612.97;4409047;32;20414;-72
2022/03/03 10:27:53;;;;;;;;;;;;;;;19.12;38.25;100618.03;4409313;32;19983;-73
2022/03/03 10:30:19;;;;;;;;;;;;;;;19.08;38.43;100619.53;4405411;32;19997;-73
2022/03/03 10:32:44;;;;;;;;;;;;;;;19.01;38.46;100600.78;4403797;32;19966;-72
2022/03/03 10:35:13;;;;;;;;;;;;;;;19.16;38.41;100600.72;4405257;32;19989;-73
2022/03/03 10:37:38;;;;;;;;;;;;;;;19.40;38.13;100607.78;4402727;32;20517;-73
2022/03/03 10:40:08;;;;;;;;;;;;;;;19.56;37.22;100612.06;4403299;32;19996;-72
2022/03/03 10:42:37;;;;;;;;;;;;;;;19.72;37.34;100614.31;4409689;32;19976;-73
2022/03/03 10:45:07;;;;;;;;;;;;;;;19.59;38.00;100611.06;4406648;32;20003;-73
2022/03/03 10:47:32;;;;;;;;;;;;;;;19.80;37.56;100619.06;4406369;32;19997;-73
2022/03/03 10:49:59;;;;;;;;;;;;;;;19.76;36.83;100618.50;4406915;32;20327;-73
2022/03/03 10:52:26;;;;;;;;;;;;;;;19.92;36.52;100605.69;4409007;32;19961;-72
2022/03/03 10:57:35;;;;;;;;;;;;;;;20.38;34.97;100616.97;3943684;32;15739556;-72
2022/03/03 11:00:06;;;;;;;;;;;;;;;20.38;34.97;100616.97;4427863;32;20473;-73
2022/03/03 11:02:32;;;;;;;;;;;;;;;20.15;36.63;100612.41;4429710;32;20454;-73
2022/03/03 11:04:58;;;;;;;;;;;;;;;20.26;35.82;100618.19;4431077;32;19976;-73
2022/03/03 11:07:24;;;;;;;;;;;;;;;20.14;36.57;100614.44;4427013;32;21343;-72
2022/03/03 11:09:50;;;;;;;;;;;;;;;20.56;35.87;100622.28;4429100;32;20216;-72
2022/03/03 11:12:16;;;;;;;;;;;;;;;20.52;35.31;100619.66;4430021;32;20117;-72
2022/03/03 11:14:42;;;;;;;;;;;;;;;20.60;36.00;100623.63;4430804;32;19997;-72
2022/03/03 11:17:09;;;;;;;;;;;;;;;20.53;34.99;100623.31;4428465;32;20015;-72
2022/03/03 11:19:35;;;;;;;;;;;;;;;20.44;35.64;100621.44;4429190;32;19973;-72
2022/03/03 11:22:01;;;;;;;;;;;;;;;20.38;35.80;100625.53;4417816;32;20015;-71
2022/03/03 11:24:28;;;;;;;;;;;;;;;20.42;35.80;100621.16;4416355;32;19981;-73
2022/03/03 11:26:53;;;;;;;;;;;;;;;20.21;35.50;100618.91;4431055;32;19987;-73
2022/03/03 11:29:20;;;;;;;;;;;;;;;19.96;36.68;100623.34;4429705;32;20379;-72
2022/03/03 11:32:05;;;;;;;;;;;;;;;20.20;36.28;100623.06;4426956;32;19976;-73
2022/03/03 11:37:15;;;;;;;;;;;;;;;20.80;35.53;100628.41;3946369;32;15722547;-72
2022/03/03 11:42:39;;;;;;;;;;;;;;;20.66;36.40;100635.06;3899031;32;15723573;-72
2022/03/03 11:47:45;;;;;;;;;;;;;;;20.60;35.83;100635.06;3946333;32;15724144;-72
2022/03/03 11:50:24;;;;;;;;;;;;;;;20.60;35.63;100629.34;4422763;32;20021;-72
2022/03/03 11:58:19;;;;;;;;;;;;;;;22.46;33.54;100624.63;3946596;32;15729299;-72
2022/03/03 12:00:47;;;;;;;;;;;;;;;22.46;33.54;100624.63;4422864;32;19997;-72
2022/03/03 12:03:14;;;;;;;;;;;;;;;22.00;33.54;100620.75;4424673;32;19992;-72
2022/03/03 12:10:57;;;;;;;;;;;;;;;23.26;32.37;100626.25;3955133;32;15722576;-72
2022/03/03 12:16:19;;;;;;;;;;;;;;;23.96;31.32;100614.09;3946050;32;15722402;-73
2022/03/03 12:18:46;;;;;;;;;;;;;;;23.96;31.32;100614.09;4419334;32;20009;-73
2022/03/03 12:21:32;;;;;;;;;;;;;;;23.76;31.06;100614.47;4416901;32;20015;-71
2022/03/03 12:29:31;;;;;;;;;;;;;;;23.85;31.23;100628.53;3944839;32;15724083;-72
2022/03/03 12:31:56;;;;;;;;;;;;;;;23.85;31.23;100628.53;4423449;32;20041;-73
2022/03/03 12:34:22;;;;;;;;;;;;;;;23.27;31.44;100627.84;4421823;32;20605;-73
2022/03/03 12:36:53;;;;;;;;;;;;;;;23.23;31.40;100618.69;4418063;32;19957;-72
2022/03/03 12:39:19;;;;;;;;;;;;;;;23.37;31.54;100620.47;4424169;32;20116;-73
2022/03/03 12:41:45;;;;;;;;;;;;;;;23.29;31.78;100612.94;4422615;32;19957;-73
2022/03/03 12:44:13;;;;;;;;;;;;;;;23.15;31.26;100619.75;4421496;32;20497;-73
2022/03/03 12:46:39;;;;;;;;;;;;;;;23.21;31.34;100617.66;4417705;32;20389;-72
2022/03/03 12:49:06;;;;;;;;;;;;;;;23.11;31.88;100610.66;4418480;32;19965;-73
2022/03/03 12:51:32;;;;;;;;;;;;;;;22.83;32.21;100602.13;4422657;32;20356;-71
2022/03/03 12:54:02;;;;;;;;;;;;;;;22.96;32.43;100604.44;4407357;32;20026;-71
2022/03/03 12:56:28;;;;;;;;;;;;;;;22.90;32.81;100600.81;4423301;32;19957;-71
2022/03/03 12:58:54;;;;;;;;;;;;;;;23.02;32.55;100603.13;4423285;32;20432;-72
2022/03/03 13:01:20;;;;;;;;;;;;;;;22.67;32.84;100602.19;4420845;32;19973;-74
2022/03/03 13:03:46;;;;;;;;;;;;;;;22.73;32.88;100597.22;4419368;32;19993;-73
2022/03/03 13:06:12;;;;;;;;;;;;;;;22.58;32.77;100597.50;4422411;32;20266;-72